Cabrillo, California
Current Conditions -  °F | °C
As of 4:53 AM on Friday 24 Oct 2014 (Local Time) from KLGB Reporting Station
Clear Clear  
Wind Chill: 61°   Ceiling: Unl
Heat Index: 61°   Visibility: 10mi
Dew Point: 58°   Wind: 0mph
Humidity: 90%   Direction: NA
Pressure: 29.95"   Gusts: NA
Location:  33.8203°N, 118.22°W
Report Text: KLGB 241153Z 00000KT 10SM CLR 16/14 A2995 RMK AO2 SLP141 T01610144 10189 20156 55002
Loading
Personal Weather Stations






























Interactive Weather Map
Tropical Storm Tracking
New forecast layout! Learn more

10-Day Weather Forecast

Advertisements
Track Severe Weather on mobile